Terminal Aerodrome Forecast
Issued by NWS Cleveland, OH

Home | Current Version | Previous Version | Text Only | Print | Product List | Glossary Off
Versions: 1 2 3 4 5 6 7 8 9 10 11 12 13 14 15 16 17 18 19 20

000
FTUS41 KCLE 181700
TAFCAK
TAF
KCAK 181726Z 1818/1918 02011KT P6SM FEW050 SCT250
     FM190400 06010KT P6SM BKN200
     FM191400 12012G20KT P6SM SCT060 BKN120=

USA.gov is the U.S. government's official web portal to all federal, state and local government web resources and services.